ESNK/KRF METAR and TAF weather

Enter ICAO airport designator
Station Type Date Time Source
ESNK METAR 2022/01/29 13:50 UTC NOAA

ESNK 291350Z AUTO 33002KT 2200 -SN SCT006/// BKN008/// BKN012/// M01/M02 Q0976


Station Type Date Time Source
ESNK Decoded METAR 2022/01/29 13:50 UTC NOAA

Kramfors Flygplats, Sweden (ESNK) 63-03N 017-46E 19M
Jan 29, 2022 - 08:50 AM EST / 2022.01.29 1350 UTC
Wind: from the NNW (330 degrees) at 2 MPH (2 KT):0
Visibility: 1 mile(s):0
Sky conditions: mostly cloudy
Weather: light snow
Temperature: 30 F (-1 C)
Dew Point: 28 F (-2 C)
Relative Humidity: 92%
Pressure (altimeter): 28.82 in. Hg (0976 hPa)
ob: ESNK 291350Z AUTO 33002KT 2200 -SN SCT006/// BKN008/// BKN012/// M01/M02 Q0976
cycle: 14

Station Type Date Time Source
ESNK TAF 2017/12/15 06:00 UTC NOAA

TAF
AMD ESNK 150654Z 1506/1521 35005KT 6000 -SN BKN016
TEMPO 1506/1521 2000 SN SG VV009

Example: see airport list